sensor_id;sensor_type;location;lat;lon;timestamp;P1;durP1;ratioP1;P2;durP2;ratioP2
14907;SDS011;7545;52.092;7.006;2022-08-19T00:01:22;6.38;;;4.63;;
14907;SDS011;7545;52.092;7.006;2022-08-19T00:03:48;5.32;;;4.78;;
14907;SDS011;7545;52.092;7.006;2022-08-19T00:06:14;5.45;;;4.55;;
14907;SDS011;7545;52.092;7.006;2022-08-19T00:08:39;6.10;;;5.13;;
14907;SDS011;7545;52.092;7.006;2022-08-19T00:11:05;4.97;;;4.47;;
14907;SDS011;7545;52.092;7.006;2022-08-19T00:13:32;5.00;;;4.53;;
14907;SDS011;7545;52.092;7.006;2022-08-19T00:15:58;5.68;;;4.60;;
14907;SDS011;7545;52.092;7.006;2022-08-19T00:18:24;5.75;;;5.13;;
14907;SDS011;7545;52.092;7.006;2022-08-19T00:20:50;5.68;;;5.07;;
14907;SDS011;7545;52.092;7.006;2022-08-19T00:23:16;6.45;;;5.18;;
14907;SDS011;7545;52.092;7.006;2022-08-19T00:25:42;6.00;;;5.35;;
14907;SDS011;7545;52.092;7.006;2022-08-19T00:28:07;6.18;;;5.13;;
14907;SDS011;7545;52.092;7.006;2022-08-19T00:30:33;5.13;;;4.63;;
14907;SDS011;7545;52.092;7.006;2022-08-19T00:32:59;7.32;;;4.65;;
14907;SDS011;7545;52.092;7.006;2022-08-19T00:35:24;5.97;;;4.93;;
14907;SDS011;7545;52.092;7.006;2022-08-19T00:37:52;5.35;;;4.85;;
14907;SDS011;7545;52.092;7.006;2022-08-19T00:40:19;9.00;;;5.10;;
14907;SDS011;7545;52.092;7.006;2022-08-19T00:42:45;5.95;;;5.38;;
14907;SDS011;7545;52.092;7.006;2022-08-19T00:45:13;6.38;;;4.90;;
14907;SDS011;7545;52.092;7.006;2022-08-19T00:47:42;5.85;;;5.25;;
14907;SDS011;7545;52.092;7.006;2022-08-19T00:50:10;5.38;;;4.03;;
14907;SDS011;7545;52.092;7.006;2022-08-19T00:52:38;5.40;;;4.93;;
14907;SDS011;7545;52.092;7.006;2022-08-19T00:55:10;7.63;;;5.25;;
14907;SDS011;7545;52.092;7.006;2022-08-19T00:57:42;7.07;;;4.95;;
14907;SDS011;7545;52.092;7.006;2022-08-19T01:00:13;6.20;;;5.60;;
14907;SDS011;7545;52.092;7.006;2022-08-19T01:02:42;5.88;;;5.28;;
14907;SDS011;7545;52.092;7.006;2022-08-19T01:05:09;7.32;;;5.60;;
14907;SDS011;7545;52.092;7.006;2022-08-19T01:07:38;8.98;;;5.85;;
14907;SDS011;7545;52.092;7.006;2022-08-19T01:10:06;8.13;;;6.03;;
14907;SDS011;7545;52.092;7.006;2022-08-19T01:12:36;7.10;;;5.68;;
14907;SDS011;7545;52.092;7.006;2022-08-19T01:15:03;5.90;;;5.28;;
14907;SDS011;7545;52.092;7.006;2022-08-19T01:17:30;7.35;;;5.72;;
14907;SDS011;7545;52.092;7.006;2022-08-19T01:19:56;7.25;;;6.15;;
14907;SDS011;7545;52.092;7.006;2022-08-19T01:24:48;6.63;;;6.03;;
14907;SDS011;7545;52.092;7.006;2022-08-19T01:27:14;6.43;;;5.80;;
14907;SDS011;7545;52.092;7.006;2022-08-19T01:29:41;7.32;;;5.68;;
14907;SDS011;7545;52.092;7.006;2022-08-19T01:32:08;7.18;;;6.47;;
14907;SDS011;7545;52.092;7.006;2022-08-19T01:34:37;6.60;;;5.90;;
14907;SDS011;7545;52.092;7.006;2022-08-19T01:37:08;6.30;;;5.70;;
14907;SDS011;7545;52.092;7.006;2022-08-19T01:39:36;7.43;;;6.25;;
14907;SDS011;7545;52.092;7.006;2022-08-19T01:42:04;6.32;;;5.30;;
14907;SDS011;7545;52.092;7.006;2022-08-19T01:44:32;7.25;;;5.78;;
14907;SDS011;7545;52.092;7.006;2022-08-19T01:46:58;8.40;;;6.85;;
14907;SDS011;7545;52.092;7.006;2022-08-19T01:49:24;6.75;;;6.05;;
14907;SDS011;7545;52.092;7.006;2022-08-19T01:51:52;6.30;;;5.68;;
14907;SDS011;7545;52.092;7.006;2022-08-19T01:54:19;8.63;;;6.05;;
14907;SDS011;7545;52.092;7.006;2022-08-19T01:56:48;6.85;;;6.15;;
14907;SDS011;7545;52.092;7.006;2022-08-19T01:59:17;6.30;;;5.70;;
14907;SDS011;7545;52.092;7.006;2022-08-19T02:01:45;7.78;;;6.65;;
14907;SDS011;7545;52.092;7.006;2022-08-19T02:04:11;7.20;;;6.50;;
14907;SDS011;7545;52.092;7.006;2022-08-19T02:06:36;9.35;;;6.75;;
14907;SDS011;7545;52.092;7.006;2022-08-19T02:09:03;7.78;;;6.97;;
14907;SDS011;7545;52.092;7.006;2022-08-19T02:11:30;7.55;;;6.57;;
14907;SDS011;7545;52.092;7.006;2022-08-19T02:13:59;7.95;;;6.63;;
14907;SDS011;7545;52.092;7.006;2022-08-19T02:16:27;6.47;;;5.88;;
14907;SDS011;7545;52.092;7.006;2022-08-19T02:18:53;7.22;;;5.90;;
14907;SDS011;7545;52.092;7.006;2022-08-19T02:21:20;7.93;;;6.93;;
14907;SDS011;7545;52.092;7.006;2022-08-19T02:23:47;8.38;;;6.50;;
14907;SDS011;7545;52.092;7.006;2022-08-19T02:26:14;7.18;;;6.40;;
14907;SDS011;7545;52.092;7.006;2022-08-19T02:28:41;7.28;;;6.57;;
14907;SDS011;7545;52.092;7.006;2022-08-19T02:31:10;7.15;;;6.45;;
14907;SDS011;7545;52.092;7.006;2022-08-19T02:33:37;6.95;;;6.25;;
14907;SDS011;7545;52.092;7.006;2022-08-19T02:36:04;6.75;;;6.10;;
14907;SDS011;7545;52.092;7.006;2022-08-19T02:38:31;8.52;;;7.28;;
14907;SDS011;7545;52.092;7.006;2022-08-19T02:41:02;9.35;;;6.80;;
14907;SDS011;7545;52.092;7.006;2022-08-19T02:43:30;8.70;;;6.88;;
14907;SDS011;7545;52.092;7.006;2022-08-19T02:46:00;9.02;;;6.70;;
14907;SDS011;7545;52.092;7.006;2022-08-19T02:48:27;8.85;;;7.45;;
14907;SDS011;7545;52.092;7.006;2022-08-19T02:50:53;8.15;;;7.35;;
14907;SDS011;7545;52.092;7.006;2022-08-19T02:53:22;9.50;;;6.85;;
14907;SDS011;7545;52.092;7.006;2022-08-19T02:55:50;8.20;;;7.20;;
14907;SDS011;7545;52.092;7.006;2022-08-19T02:58:16;9.82;;;7.18;;
14907;SDS011;7545;52.092;7.006;2022-08-19T03:00:43;8.48;;;7.30;;
14907;SDS011;7545;52.092;7.006;2022-08-19T03:03:10;10.13;;;8.23;;
14907;SDS011;7545;52.092;7.006;2022-08-19T03:05:37;8.30;;;7.50;;
14907;SDS011;7545;52.092;7.006;2022-08-19T03:08:03;8.77;;;7.45;;
14907;SDS011;7545;52.092;7.006;2022-08-19T03:10:29;9.90;;;7.50;;
14907;SDS011;7545;52.092;7.006;2022-08-19T03:12:54;9.38;;;8.20;;
14907;SDS011;7545;52.092;7.006;2022-08-19T03:15:20;9.20;;;8.18;;
14907;SDS011;7545;52.092;7.006;2022-08-19T03:17:46;10.15;;;8.25;;
14907;SDS011;7545;52.092;7.006;2022-08-19T03:20:11;14.90;;;7.45;;
14907;SDS011;7545;52.092;7.006;2022-08-19T03:22:37;10.32;;;7.90;;
14907;SDS011;7545;52.092;7.006;2022-08-19T03:25:03;9.07;;;7.70;;
14907;SDS011;7545;52.092;7.006;2022-08-19T03:27:29;9.50;;;7.07;;
14907;SDS011;7545;52.092;7.006;2022-08-19T03:29:55;9.32;;;7.03;;
14907;SDS011;7545;52.092;7.006;2022-08-19T03:32:20;8.18;;;7.22;;
14907;SDS011;7545;52.092;7.006;2022-08-19T03:34:46;8.65;;;7.32;;
14907;SDS011;7545;52.092;7.006;2022-08-19T03:37:12;10.50;;;7.63;;
14907;SDS011;7545;52.092;7.006;2022-08-19T03:39:38;8.85;;;6.75;;
14907;SDS011;7545;52.092;7.006;2022-08-19T03:42:05;8.82;;;7.55;;
14907;SDS011;7545;52.092;7.006;2022-08-19T03:44:31;8.93;;;7.70;;
14907;SDS011;7545;52.092;7.006;2022-08-19T03:46:58;9.70;;;8.70;;
14907;SDS011;7545;52.092;7.006;2022-08-19T03:49:26;8.95;;;7.93;;
14907;SDS011;7545;52.092;7.006;2022-08-19T03:51:54;10.57;;;8.48;;
14907;SDS011;7545;52.092;7.006;2022-08-19T03:54:22;10.73;;;8.98;;
14907;SDS011;7545;52.092;7.006;2022-08-19T03:56:49;8.68;;;7.63;;
14907;SDS011;7545;52.092;7.006;2022-08-19T03:59:19;9.32;;;7.50;;
14907;SDS011;7545;52.092;7.006;2022-08-19T04:01:51;8.70;;;7.68;;
14907;SDS011;7545;52.092;7.006;2022-08-19T04:04:18;10.43;;;8.88;;
14907;SDS011;7545;52.092;7.006;2022-08-19T04:06:43;8.90;;;7.93;;
14907;SDS011;7545;52.092;7.006;2022-08-19T04:09:09;8.63;;;7.30;;
14907;SDS011;7545;52.092;7.006;2022-08-19T04:11:43;9.35;;;8.27;;
14907;SDS011;7545;52.092;7.006;2022-08-19T04:14:13;11.35;;;8.48;;
14907;SDS011;7545;52.092;7.006;2022-08-19T04:16:41;9.88;;;8.85;;
14907;SDS011;7545;52.092;7.006;2022-08-19T04:19:09;14.38;;;9.68;;
14907;SDS011;7545;52.092;7.006;2022-08-19T04:21:35;12.15;;;8.63;;
14907;SDS011;7545;52.092;7.006;2022-08-19T04:24:01;10.75;;;9.50;;
14907;SDS011;7545;52.092;7.006;2022-08-19T04:26:28;10.02;;;8.13;;
14907;SDS011;7545;52.092;7.006;2022-08-19T04:29:00;9.40;;;8.38;;
14907;SDS011;7545;52.092;7.006;2022-08-19T04:31:28;10.05;;;8.80;;
14907;SDS011;7545;52.092;7.006;2022-08-19T04:33:56;9.80;;;8.80;;
14907;SDS011;7545;52.092;7.006;2022-08-19T04:36:27;9.60;;;8.50;;
14907;SDS011;7545;52.092;7.006;2022-08-19T04:38:55;9.35;;;8.15;;
14907;SDS011;7545;52.092;7.006;2022-08-19T04:41:22;10.30;;;9.20;;
14907;SDS011;7545;52.092;7.006;2022-08-19T04:44:08;9.80;;;8.80;;
14907;SDS011;7545;52.092;7.006;2022-08-19T04:46:34;11.30;;;8.55;;
14907;SDS011;7545;52.092;7.006;2022-08-19T04:49:01;12.55;;;10.43;;
14907;SDS011;7545;52.092;7.006;2022-08-19T04:51:29;11.15;;;9.52;;
14907;SDS011;7545;52.092;7.006;2022-08-19T04:53:56;11.88;;;10.13;;
14907;SDS011;7545;52.092;7.006;2022-08-19T04:56:22;11.43;;;9.55;;
14907;SDS011;7545;52.092;7.006;2022-08-19T04:58:51;11.45;;;9.95;;
14907;SDS011;7545;52.092;7.006;2022-08-19T05:01:19;13.15;;;10.27;;
14907;SDS011;7545;52.092;7.006;2022-08-19T05:03:46;12.10;;;9.27;;
14907;SDS011;7545;52.092;7.006;2022-08-19T05:06:13;11.38;;;10.13;;
14907;SDS011;7545;52.092;7.006;2022-08-19T05:08:40;10.60;;;9.48;;
14907;SDS011;7545;52.092;7.006;2022-08-19T05:13:49;11.80;;;8.80;;
14907;SDS011;7545;52.092;7.006;2022-08-19T05:16:16;10.13;;;8.82;;
14907;SDS011;7545;52.092;7.006;2022-08-19T05:18:44;11.25;;;9.35;;
14907;SDS011;7545;52.092;7.006;2022-08-19T05:21:30;10.52;;;9.13;;
14907;SDS011;7545;52.092;7.006;2022-08-19T05:24:22;10.48;;;9.18;;
14907;SDS011;7545;52.092;7.006;2022-08-19T05:26:49;11.63;;;9.02;;
14907;SDS011;7545;52.092;7.006;2022-08-19T05:29:17;11.85;;;9.60;;
14907;SDS011;7545;52.092;7.006;2022-08-19T05:31:45;12.60;;;9.45;;
14907;SDS011;7545;52.092;7.006;2022-08-19T05:34:14;12.38;;;9.75;;
14907;SDS011;7545;52.092;7.006;2022-08-19T05:36:42;11.15;;;9.50;;
14907;SDS011;7545;52.092;7.006;2022-08-19T05:39:11;11.10;;;9.68;;
14907;SDS011;7545;52.092;7.006;2022-08-19T05:41:41;11.73;;;9.48;;
14907;SDS011;7545;52.092;7.006;2022-08-19T05:44:08;12.25;;;9.68;;
14907;SDS011;7545;52.092;7.006;2022-08-19T05:46:35;14.18;;;10.30;;
14907;SDS011;7545;52.092;7.006;2022-08-19T05:49:03;11.48;;;10.02;;
14907;SDS011;7545;52.092;7.006;2022-08-19T05:51:33;13.43;;;10.05;;
14907;SDS011;7545;52.092;7.006;2022-08-19T05:54:02;11.65;;;9.85;;
14907;SDS011;7545;52.092;7.006;2022-08-19T05:56:29;13.27;;;11.18;;
14907;SDS011;7545;52.092;7.006;2022-08-19T05:59:01;14.13;;;9.63;;
14907;SDS011;7545;52.092;7.006;2022-08-19T06:01:27;13.52;;;9.90;;
14907;SDS011;7545;52.092;7.006;2022-08-19T06:03:52;11.18;;;8.75;;
14907;SDS011;7545;52.092;7.006;2022-08-19T06:06:18;12.13;;;9.20;;
14907;SDS011;7545;52.092;7.006;2022-08-19T06:08:45;10.55;;;9.27;;
14907;SDS011;7545;52.092;7.006;2022-08-19T06:13:41;11.43;;;9.07;;
14907;SDS011;7545;52.092;7.006;2022-08-19T06:16:07;11.40;;;10.18;;
14907;SDS011;7545;52.092;7.006;2022-08-19T06:18:33;10.30;;;8.35;;
14907;SDS011;7545;52.092;7.006;2022-08-19T06:20:59;13.68;;;10.52;;
14907;SDS011;7545;52.092;7.006;2022-08-19T06:23:28;11.57;;;9.43;;
14907;SDS011;7545;52.092;7.006;2022-08-19T06:25:54;11.75;;;9.73;;
14907;SDS011;7545;52.092;7.006;2022-08-19T06:28:20;14.05;;;11.02;;
14907;SDS011;7545;52.092;7.006;2022-08-19T06:30:45;14.25;;;10.73;;
14907;SDS011;7545;52.092;7.006;2022-08-19T06:33:11;12.63;;;9.95;;
14907;SDS011;7545;52.092;7.006;2022-08-19T06:35:40;15.68;;;9.95;;
14907;SDS011;7545;52.092;7.006;2022-08-19T06:38:06;11.52;;;9.18;;
14907;SDS011;7545;52.092;7.006;2022-08-19T06:40:33;11.90;;;9.68;;
14907;SDS011;7545;52.092;7.006;2022-08-19T06:43:00;12.90;;;10.10;;
14907;SDS011;7545;52.092;7.006;2022-08-19T06:45:27;10.00;;;8.90;;
14907;SDS011;7545;52.092;7.006;2022-08-19T06:47:52;12.38;;;9.07;;
14907;SDS011;7545;52.092;7.006;2022-08-19T06:50:24;10.77;;;9.23;;
14907;SDS011;7545;52.092;7.006;2022-08-19T06:52:49;11.95;;;8.90;;
14907;SDS011;7545;52.092;7.006;2022-08-19T06:55:15;11.80;;;9.13;;
14907;SDS011;7545;52.092;7.006;2022-08-19T06:57:41;13.23;;;8.73;;
14907;SDS011;7545;52.092;7.006;2022-08-19T07:00:07;9.32;;;7.57;;
14907;SDS011;7545;52.092;7.006;2022-08-19T07:02:39;10.50;;;8.73;;
14907;SDS011;7545;52.092;7.006;2022-08-19T07:05:06;12.85;;;8.18;;
14907;SDS011;7545;52.092;7.006;2022-08-19T07:07:32;12.45;;;8.88;;
14907;SDS011;7545;52.092;7.006;2022-08-19T07:09:58;10.80;;;8.43;;
14907;SDS011;7545;52.092;7.006;2022-08-19T07:12:23;11.10;;;8.90;;
14907;SDS011;7545;52.092;7.006;2022-08-19T07:14:49;9.93;;;8.23;;
14907;SDS011;7545;52.092;7.006;2022-08-19T07:17:15;16.98;;;11.73;;
14907;SDS011;7545;52.092;7.006;2022-08-19T07:19:41;12.68;;;9.20;;
14907;SDS011;7545;52.092;7.006;2022-08-19T07:22:08;12.13;;;9.88;;
14907;SDS011;7545;52.092;7.006;2022-08-19T07:24:35;12.82;;;9.43;;
14907;SDS011;7545;52.092;7.006;2022-08-19T07:27:02;12.30;;;9.00;;
14907;SDS011;7545;52.092;7.006;2022-08-19T07:29:30;13.80;;;8.98;;
14907;SDS011;7545;52.092;7.006;2022-08-19T07:31:58;9.98;;;8.95;;
14907;SDS011;7545;52.092;7.006;2022-08-19T07:34:25;11.15;;;7.90;;
14907;SDS011;7545;52.092;7.006;2022-08-19T07:36:52;11.07;;;8.23;;
14907;SDS011;7545;52.092;7.006;2022-08-19T07:39:21;10.40;;;8.73;;
14907;SDS011;7545;52.092;7.006;2022-08-19T07:41:52;10.73;;;8.52;;
14907;SDS011;7545;52.092;7.006;2022-08-19T07:44:20;12.25;;;8.02;;
14907;SDS011;7545;52.092;7.006;2022-08-19T07:46:46;9.75;;;7.63;;
14907;SDS011;7545;52.092;7.006;2022-08-19T07:49:15;11.80;;;7.05;;
14907;SDS011;7545;52.092;7.006;2022-08-19T07:51:48;12.98;;;8.20;;
14907;SDS011;7545;52.092;7.006;2022-08-19T07:54:16;11.55;;;8.63;;
14907;SDS011;7545;52.092;7.006;2022-08-19T07:56:42;9.60;;;7.78;;
14907;SDS011;7545;52.092;7.006;2022-08-19T07:59:08;12.18;;;8.00;;
14907;SDS011;7545;52.092;7.006;2022-08-19T08:01:34;12.23;;;7.70;;
14907;SDS011;7545;52.092;7.006;2022-08-19T08:04:00;8.98;;;7.25;;
14907;SDS011;7545;52.092;7.006;2022-08-19T08:06:44;9.43;;;7.60;;
14907;SDS011;7545;52.092;7.006;2022-08-19T08:09:42;9.90;;;7.40;;
14907;SDS011;7545;52.092;7.006;2022-08-19T08:12:11;10.15;;;7.10;;
14907;SDS011;7545;52.092;7.006;2022-08-19T08:14:43;11.40;;;7.50;;
14907;SDS011;7545;52.092;7.006;2022-08-19T08:17:14;7.45;;;6.60;;
14907;SDS011;7545;52.092;7.006;2022-08-19T08:19:42;10.50;;;7.50;;
14907;SDS011;7545;52.092;7.006;2022-08-19T08:22:09;10.43;;;7.15;;
14907;SDS011;7545;52.092;7.006;2022-08-19T08:24:56;10.02;;;8.05;;
14907;SDS011;7545;52.092;7.006;2022-08-19T08:27:29;8.88;;;6.95;;
14907;SDS011;7545;52.092;7.006;2022-08-19T08:29:56;8.38;;;6.32;;
14907;SDS011;7545;52.092;7.006;2022-08-19T08:32:22;10.23;;;7.15;;
14907;SDS011;7545;52.092;7.006;2022-08-19T08:34:48;8.25;;;7.43;;
14907;SDS011;7545;52.092;7.006;2022-08-19T08:37:13;7.10;;;6.03;;
14907;SDS011;7545;52.092;7.006;2022-08-19T08:39:39;8.70;;;6.97;;
14907;SDS011;7545;52.092;7.006;2022-08-19T08:42:17;7.07;;;5.70;;
14907;SDS011;7545;52.092;7.006;2022-08-19T08:44:53;12.68;;;7.75;;
14907;SDS011;7545;52.092;7.006;2022-08-19T08:47:29;11.48;;;6.80;;
14907;SDS011;7545;52.092;7.006;2022-08-19T08:50:04;12.90;;;7.55;;
14907;SDS011;7545;52.092;7.006;2022-08-19T08:52:47;10.00;;;8.07;;
14907;SDS011;7545;52.092;7.006;2022-08-19T08:55:19;9.20;;;7.68;;
14907;SDS011;7545;52.092;7.006;2022-08-19T09:00:18;8.48;;;6.82;;
14907;SDS011;7545;52.092;7.006;2022-08-19T09:02:57;7.75;;;6.95;;
14907;SDS011;7545;52.092;7.006;2022-08-19T09:05:30;7.95;;;6.90;;
14907;SDS011;7545;52.092;7.006;2022-08-19T09:08:13;7.85;;;6.97;;
14907;SDS011;7545;52.092;7.006;2022-08-19T09:10:52;7.85;;;6.72;;
14907;SDS011;7545;52.092;7.006;2022-08-19T09:13:26;7.75;;;6.95;;
14907;SDS011;7545;52.092;7.006;2022-08-19T09:16:02;11.00;;;7.70;;
14907;SDS011;7545;52.092;7.006;2022-08-19T09:18:41;8.25;;;6.82;;
14907;SDS011;7545;52.092;7.006;2022-08-19T09:21:12;6.53;;;5.85;;
14907;SDS011;7545;52.092;7.006;2022-08-19T09:23:39;7.32;;;5.82;;
14907;SDS011;7545;52.092;7.006;2022-08-19T09:26:08;5.78;;;5.05;;
14907;SDS011;7545;52.092;7.006;2022-08-19T09:28:38;7.05;;;5.80;;
14907;SDS011;7545;52.092;7.006;2022-08-19T09:31:08;7.60;;;6.47;;
14907;SDS011;7545;52.092;7.006;2022-08-19T09:33:41;10.75;;;9.65;;
14907;SDS011;7545;52.092;7.006;2022-08-19T09:36:09;8.50;;;7.15;;
14907;SDS011;7545;52.092;7.006;2022-08-19T09:38:38;9.30;;;8.10;;
14907;SDS011;7545;52.092;7.006;2022-08-19T09:41:12;10.48;;;7.10;;
14907;SDS011;7545;52.092;7.006;2022-08-19T09:43:40;8.10;;;7.13;;
14907;SDS011;7545;52.092;7.006;2022-08-19T09:46:07;8.32;;;6.68;;
14907;SDS011;7545;52.092;7.006;2022-08-19T09:48:36;10.90;;;7.93;;
14907;SDS011;7545;52.092;7.006;2022-08-19T09:51:06;9.40;;;8.25;;
14907;SDS011;7545;52.092;7.006;2022-08-19T09:53:37;11.00;;;9.57;;
14907;SDS011;7545;52.092;7.006;2022-08-19T09:56:04;10.25;;;9.13;;
14907;SDS011;7545;52.092;7.006;2022-08-19T09:58:31;10.32;;;9.10;;
14907;SDS011;7545;52.092;7.006;2022-08-19T10:00:58;12.18;;;9.90;;
14907;SDS011;7545;52.092;7.006;2022-08-19T10:03:25;11.27;;;8.85;;
14907;SDS011;7545;52.092;7.006;2022-08-19T10:05:52;10.02;;;8.60;;
14907;SDS011;7545;52.092;7.006;2022-08-19T10:08:20;9.93;;;7.72;;
14907;SDS011;7545;52.092;7.006;2022-08-19T10:11:06;9.60;;;7.63;;
14907;SDS011;7545;52.092;7.006;2022-08-19T10:13:34;12.20;;;7.82;;
14907;SDS011;7545;52.092;7.006;2022-08-19T10:16:07;10.40;;;9.27;;
14907;SDS011;7545;52.092;7.006;2022-08-19T10:18:36;10.15;;;8.50;;
14907;SDS011;7545;52.092;7.006;2022-08-19T10:21:07;10.30;;;8.10;;
14907;SDS011;7545;52.092;7.006;2022-08-19T10:23:45;11.18;;;8.40;;
14907;SDS011;7545;52.092;7.006;2022-08-19T10:26:16;10.57;;;7.88;;
14907;SDS011;7545;52.092;7.006;2022-08-19T10:28:48;10.32;;;7.25;;
14907;SDS011;7545;52.092;7.006;2022-08-19T10:31:16;7.90;;;6.55;;
14907;SDS011;7545;52.092;7.006;2022-08-19T10:33:45;9.43;;;8.48;;
14907;SDS011;7545;52.092;7.006;2022-08-19T10:36:13;9.80;;;7.88;;
14907;SDS011;7545;52.092;7.006;2022-08-19T10:38:45;9.95;;;7.82;;
14907;SDS011;7545;52.092;7.006;2022-08-19T10:41:19;8.40;;;6.55;;
14907;SDS011;7545;52.092;7.006;2022-08-19T10:43:50;7.50;;;6.68;;
14907;SDS011;7545;52.092;7.006;2022-08-19T10:46:19;10.55;;;6.97;;
14907;SDS011;7545;52.092;7.006;2022-08-19T10:48:47;13.65;;;9.77;;
14907;SDS011;7545;52.092;7.006;2022-08-19T10:51:12;10.32;;;7.68;;
14907;SDS011;7545;52.092;7.006;2022-08-19T10:53:57;9.25;;;7.38;;
14907;SDS011;7545;52.092;7.006;2022-08-19T10:56:24;11.50;;;8.48;;
14907;SDS011;7545;52.092;7.006;2022-08-19T10:59:09;9.90;;;8.18;;
14907;SDS011;7545;52.092;7.006;2022-08-19T11:01:36;11.48;;;7.78;;
14907;SDS011;7545;52.092;7.006;2022-08-19T11:04:02;7.03;;;6.10;;
14907;SDS011;7545;52.092;7.006;2022-08-19T11:06:30;7.60;;;6.72;;
14907;SDS011;7545;52.092;7.006;2022-08-19T11:08:56;6.22;;;5.55;;
14907;SDS011;7545;52.092;7.006;2022-08-19T11:11:23;7.78;;;6.70;;
14907;SDS011;7545;52.092;7.006;2022-08-19T11:13:49;7.07;;;5.82;;
14907;SDS011;7545;52.092;7.006;2022-08-19T11:16:16;6.50;;;4.82;;
14907;SDS011;7545;52.092;7.006;2022-08-19T11:18:49;7.13;;;5.85;;
14907;SDS011;7545;52.092;7.006;2022-08-19T11:23:51;7.55;;;6.75;;
14907;SDS011;7545;52.092;7.006;2022-08-19T11:26:20;7.05;;;5.93;;
14907;SDS011;7545;52.092;7.006;2022-08-19T11:28:46;8.07;;;5.60;;
14907;SDS011;7545;52.092;7.006;2022-08-19T11:31:16;5.05;;;4.63;;
14907;SDS011;7545;52.092;7.006;2022-08-19T11:33:43;5.38;;;4.88;;
14907;SDS011;7545;52.092;7.006;2022-08-19T11:36:10;5.65;;;4.65;;
14907;SDS011;7545;52.092;7.006;2022-08-19T11:38:36;5.78;;;5.18;;
14907;SDS011;7545;52.092;7.006;2022-08-19T11:41:04;8.48;;;4.97;;
14907;SDS011;7545;52.092;7.006;2022-08-19T11:43:34;7.72;;;5.32;;
14907;SDS011;7545;52.092;7.006;2022-08-19T11:46:03;4.93;;;4.43;;
14907;SDS011;7545;52.092;7.006;2022-08-19T11:48:33;5.10;;;4.28;;
14907;SDS011;7545;52.092;7.006;2022-08-19T11:51:02;5.35;;;3.70;;
14907;SDS011;7545;52.092;7.006;2022-08-19T11:53:31;4.45;;;3.90;;
14907;SDS011;7545;52.092;7.006;2022-08-19T11:55:57;5.75;;;5.13;;
14907;SDS011;7545;52.092;7.006;2022-08-19T11:58:22;10.50;;;6.32;;
14907;SDS011;7545;52.092;7.006;2022-08-19T12:00:50;6.10;;;5.03;;
14907;SDS011;7545;52.092;7.006;2022-08-19T12:03:16;7.60;;;5.38;;
14907;SDS011;7545;52.092;7.006;2022-08-19T12:05:43;6.10;;;4.32;;
14907;SDS011;7545;52.092;7.006;2022-08-19T12:08:09;5.57;;;4.57;;
14907;SDS011;7545;52.092;7.006;2022-08-19T12:10:36;6.10;;;4.93;;
14907;SDS011;7545;52.092;7.006;2022-08-19T12:13:02;7.43;;;4.38;;
14907;SDS011;7545;52.092;7.006;2022-08-19T12:15:28;5.35;;;4.50;;
14907;SDS011;7545;52.092;7.006;2022-08-19T12:17:54;4.75;;;4.28;;
14907;SDS011;7545;52.092;7.006;2022-08-19T12:20:22;5.28;;;4.38;;
14907;SDS011;7545;52.092;7.006;2022-08-19T12:22:49;8.68;;;3.97;;
14907;SDS011;7545;52.092;7.006;2022-08-19T12:25:15;4.60;;;4.07;;
14907;SDS011;7545;52.092;7.006;2022-08-19T12:27:41;5.10;;;4.07;;
14907;SDS011;7545;52.092;7.006;2022-08-19T12:30:08;5.22;;;3.70;;
14907;SDS011;7545;52.092;7.006;2022-08-19T12:32:35;7.35;;;4.35;;
14907;SDS011;7545;52.092;7.006;2022-08-19T12:35:01;4.30;;;3.72;;
14907;SDS011;7545;52.092;7.006;2022-08-19T12:37:27;8.63;;;3.97;;
14907;SDS011;7545;52.092;7.006;2022-08-19T12:39:54;3.80;;;3.10;;
14907;SDS011;7545;52.092;7.006;2022-08-19T12:42:20;4.55;;;3.47;;
14907;SDS011;7545;52.092;7.006;2022-08-19T12:44:47;3.95;;;3.10;;
14907;SDS011;7545;52.092;7.006;2022-08-19T12:47:13;4.35;;;3.33;;
14907;SDS011;7545;52.092;7.006;2022-08-19T12:49:39;5.47;;;4.10;;
14907;SDS011;7545;52.092;7.006;2022-08-19T12:52:05;3.75;;;3.45;;
14907;SDS011;7545;52.092;7.006;2022-08-19T12:54:33;6.85;;;4.15;;
14907;SDS011;7545;52.092;7.006;2022-08-19T12:56:59;5.45;;;3.70;;
14907;SDS011;7545;52.092;7.006;2022-08-19T12:59:25;5.03;;;3.88;;
14907;SDS011;7545;52.092;7.006;2022-08-19T13:01:52;4.90;;;3.72;;
14907;SDS011;7545;52.092;7.006;2022-08-19T13:04:18;3.50;;;3.20;;
14907;SDS011;7545;52.092;7.006;2022-08-19T13:06:43;5.47;;;2.92;;
14907;SDS011;7545;52.092;7.006;2022-08-19T13:09:09;4.70;;;3.83;;
14907;SDS011;7545;52.092;7.006;2022-08-19T13:11:36;3.95;;;3.22;;
14907;SDS011;7545;52.092;7.006;2022-08-19T13:14:02;3.75;;;3.45;;
14907;SDS011;7545;52.092;7.006;2022-08-19T13:16:29;4.00;;;3.10;;
14907;SDS011;7545;52.092;7.006;2022-08-19T13:18:55;3.47;;;3.08;;
14907;SDS011;7545;52.092;7.006;2022-08-19T13:21:22;3.83;;;3.00;;
14907;SDS011;7545;52.092;7.006;2022-08-19T13:23:50;6.28;;;3.78;;
14907;SDS011;7545;52.092;7.006;2022-08-19T13:26:17;5.00;;;3.67;;
14907;SDS011;7545;52.092;7.006;2022-08-19T13:28:44;4.65;;;3.85;;
14907;SDS011;7545;52.092;7.006;2022-08-19T13:31:29;5.65;;;3.03;;
14907;SDS011;7545;52.092;7.006;2022-08-19T13:34:16;3.75;;;3.28;;
14907;SDS011;7545;52.092;7.006;2022-08-19T13:36:44;3.53;;;2.55;;
14907;SDS011;7545;52.092;7.006;2022-08-19T13:39:10;4.25;;;3.00;;
14907;SDS011;7545;52.092;7.006;2022-08-19T13:41:36;3.95;;;2.90;;
14907;SDS011;7545;52.092;7.006;2022-08-19T13:44:04;4.43;;;2.95;;
14907;SDS011;7545;52.092;7.006;2022-08-19T13:46:31;4.70;;;3.78;;
14907;SDS011;7545;52.092;7.006;2022-08-19T13:48:57;3.83;;;2.53;;
14907;SDS011;7545;52.092;7.006;2022-08-19T13:51:22;4.82;;;3.50;;
14907;SDS011;7545;52.092;7.006;2022-08-19T13:53:48;3.65;;;2.60;;
14907;SDS011;7545;52.092;7.006;2022-08-19T13:56:16;5.90;;;3.97;;
14907;SDS011;7545;52.092;7.006;2022-08-19T13:58:46;4.50;;;2.60;;
14907;SDS011;7545;52.092;7.006;2022-08-19T14:01:12;4.20;;;3.33;;
14907;SDS011;7545;52.092;7.006;2022-08-19T14:03:43;5.47;;;3.25;;
14907;SDS011;7545;52.092;7.006;2022-08-19T14:06:09;6.28;;;4.30;;
14907;SDS011;7545;52.092;7.006;2022-08-19T14:08:35;5.13;;;3.88;;
14907;SDS011;7545;52.092;7.006;2022-08-19T14:11:04;6.20;;;3.30;;
14907;SDS011;7545;52.092;7.006;2022-08-19T14:13:30;9.25;;;5.82;;
14907;SDS011;7545;52.092;7.006;2022-08-19T14:15:58;8.50;;;5.28;;
14907;SDS011;7545;52.092;7.006;2022-08-19T14:18:24;6.07;;;4.85;;
14907;SDS011;7545;52.092;7.006;2022-08-19T14:20:50;6.10;;;4.97;;
14907;SDS011;7545;52.092;7.006;2022-08-19T14:23:16;7.55;;;4.85;;
14907;SDS011;7545;52.092;7.006;2022-08-19T14:25:42;7.28;;;5.00;;
14907;SDS011;7545;52.092;7.006;2022-08-19T14:28:08;6.57;;;4.50;;
14907;SDS011;7545;52.092;7.006;2022-08-19T14:30:34;7.68;;;4.75;;
14907;SDS011;7545;52.092;7.006;2022-08-19T14:33:02;6.60;;;4.10;;
14907;SDS011;7545;52.092;7.006;2022-08-19T14:35:29;6.05;;;4.22;;
14907;SDS011;7545;52.092;7.006;2022-08-19T14:38:01;4.20;;;3.65;;
14907;SDS011;7545;52.092;7.006;2022-08-19T14:40:30;5.05;;;3.63;;
14907;SDS011;7545;52.092;7.006;2022-08-19T14:42:57;3.55;;;3.13;;
14907;SDS011;7545;52.092;7.006;2022-08-19T14:45:28;4.10;;;3.25;;
14907;SDS011;7545;52.092;7.006;2022-08-19T14:47:55;7.57;;;3.35;;
14907;SDS011;7545;52.092;7.006;2022-08-19T14:50:21;6.00;;;3.30;;
14907;SDS011;7545;52.092;7.006;2022-08-19T14:52:47;7.85;;;4.38;;
14907;SDS011;7545;52.092;7.006;2022-08-19T14:55:14;8.55;;;3.67;;
14907;SDS011;7545;52.092;7.006;2022-08-19T14:57:41;5.00;;;3.45;;
14907;SDS011;7545;52.092;7.006;2022-08-19T15:00:07;5.55;;;3.47;;
14907;SDS011;7545;52.092;7.006;2022-08-19T15:02:38;5.22;;;3.28;;
14907;SDS011;7545;52.092;7.006;2022-08-19T15:05:04;4.50;;;3.45;;
14907;SDS011;7545;52.092;7.006;2022-08-19T15:07:30;4.00;;;3.38;;
14907;SDS011;7545;52.092;7.006;2022-08-19T15:09:56;4.00;;;2.75;;
14907;SDS011;7545;52.092;7.006;2022-08-19T15:12:22;3.55;;;2.40;;
14907;SDS011;7545;52.092;7.006;2022-08-19T15:14:48;3.13;;;2.83;;